Time;durP1;ratioP1;P1;durP2;ratioP2;P2;SDS_P1;SDS_P2;PMS_P1;PMS_P2;Temp;Humidity;BMP_temperature;BMP_pressure;BME280_temperature;BME280_humidity;BME280_pressure;Samples;Min_cycle;Max_cycle;Signal;HPM_P1;HPM_P2
2022/03/17 00:00:15;;;;;;;33.00;22.40;;;10.40;99.90;;;;;;5095495;28;20048;-59
2022/03/17 00:02:41;;;;;;;29.23;22.35;;;10.50;99.90;;;;;;5095912;28;20040;-59
2022/03/17 00:05:08;;;;;;;32.22;22.67;;;10.00;99.90;;;;;;5095692;28;20044;-59
2022/03/17 00:07:35;;;;;;;32.15;22.45;;;10.10;99.90;;;;;;5095609;28;20161;-59
2022/03/17 00:10:01;;;;;;;35.08;23.58;;;10.50;99.90;;;;;;5095525;28;20032;-59
2022/03/17 00:12:26;;;;;;;31.60;22.67;;;10.30;99.90;;;;;;5077330;28;20046;-59
2022/03/17 00:14:53;;;;;;;31.40;22.95;;;10.20;99.90;;;;;;5095510;28;20071;-61
2022/03/17 00:17:18;;;;;;;30.77;22.92;;;10.10;99.90;;;;;;5095258;28;20528;-59
2022/03/17 00:19:45;;;;;;;34.72;23.35;;;10.00;99.90;;;;;;5095130;28;20128;-60
2022/03/17 00:22:15;;;;;;;30.15;22.42;;;10.20;99.90;;;;;;5095222;28;20066;-59
2022/03/17 00:24:41;;;;;;;33.97;23.17;;;9.90;99.90;;;;;;5094899;28;20084;-59
2022/03/17 00:27:08;;;;;;;30.30;22.80;;;10.20;99.90;;;;;;5095199;28;20530;-59
2022/03/17 00:29:35;;;;;;;29.08;22.38;;;10.00;99.90;;;;;;5077215;28;20044;-60
2022/03/17 00:32:06;;;;;;;33.63;23.63;;;10.00;99.90;;;;;;5095406;28;20394;-59
2022/03/17 00:34:31;;;;;;;32.67;23.48;;;10.30;99.90;;;;;;5094986;28;20540;-59
2022/03/17 00:36:57;;;;;;;33.20;23.75;;;10.20;99.90;;;;;;5095033;28;20078;-59
2022/03/17 00:39:23;;;;;;;32.33;23.13;;;10.10;99.90;;;;;;5095158;28;20044;-59
2022/03/17 00:41:49;;;;;;;35.13;23.48;;;10.60;99.90;;;;;;5094769;28;20395;-59
2022/03/17 00:44:14;;;;;;;32.20;22.90;;;10.60;99.90;;;;;;5094664;28;20043;-59
2022/03/17 00:46:41;;;;;;;31.48;24.00;;;10.50;99.90;;;;;;5095054;28;20036;-59
2022/03/17 00:49:07;;;;;;;31.77;23.38;;;10.50;99.90;;;;;;5094610;28;20039;-59
2022/03/17 00:51:33;;;;;;;32.42;23.40;;;10.00;99.90;;;;;;5094836;28;20032;-59
2022/03/17 00:53:59;;;;;;;34.45;22.52;;;10.10;99.90;;;;;;5076473;28;20048;-60
2022/03/17 00:56:26;;;;;;;33.17;22.77;;;10.00;99.90;;;;;;5094990;28;20356;-59
2022/03/17 00:58:52;;;;;;;34.10;24.00;;;10.60;99.90;;;;;;5094334;28;20107;-59
2022/03/17 01:01:18;;;;;;;35.90;24.15;;;10.10;99.90;;;;;;5094408;28;20483;-59
2022/03/17 01:03:45;;;;;;;34.13;23.35;;;10.60;99.90;;;;;;5094380;28;20045;-59
2022/03/17 01:06:12;;;;;;;33.70;23.35;;;10.30;99.90;;;;;;5094440;28;20032;-59
2022/03/17 01:08:38;;;;;;;31.42;23.98;;;10.30;99.90;;;;;;5094372;28;20036;-64
2022/03/17 01:11:05;;;;;;;30.38;23.15;;;10.50;99.90;;;;;;5059476;28;20032;-68
2022/03/17 01:13:32;;;;;;;35.85;23.55;;;9.90;99.90;;;;;;5094189;28;20122;-67
2022/03/17 01:15:57;;;;;;;34.92;24.13;;;10.10;99.90;;;;;;5094168;28;20081;-67
2022/03/17 01:18:24;;;;;;;34.35;23.48;;;;;;;;;;5094175;28;20040;-67
2022/03/17 01:20:50;;;;;;;31.75;23.45;;;10.50;99.90;;;;;;5094065;28;20086;-67
2022/03/17 01:23:17;;;;;;;31.10;23.70;;;10.10;99.90;;;;;;5093995;28;20054;-67
2022/03/17 01:25:43;;;;;;;32.28;23.70;;;10.50;99.90;;;;;;5093787;28;20398;-67
2022/03/17 01:28:08;;;;;;;33.60;23.42;;;10.40;99.90;;;;;;5075872;28;20069;-67
2022/03/17 01:30:35;;;;;;;34.72;23.60;;;10.30;99.90;;;;;;5094143;28;20475;-67
2022/03/17 01:33:01;;;;;;;37.80;23.90;;;10.60;99.90;;;;;;5093446;28;20052;-68
2022/03/17 01:35:27;;;;;;;33.92;23.90;;;9.90;99.90;;;;;;5093868;28;20032;-67
2022/03/17 01:37:53;;;;;;;36.30;24.30;;;;;;;;;;5093736;28;20532;-68
2022/03/17 01:40:19;;;;;;;34.67;23.95;;;10.40;99.90;;;;;;5093618;28;20051;-67
2022/03/17 01:42:45;;;;;;;35.20;24.20;;;9.90;99.90;;;;;;5093750;28;20036;-68
2022/03/17 01:45:11;;;;;;;33.15;23.48;;;10.50;99.90;;;;;;5093774;28;20036;-68
2022/03/17 01:47:38;;;;;;;33.00;23.85;;;;;;;;;;5093689;28;20050;-67
2022/03/17 01:50:03;;;;;;;36.55;23.73;;;10.40;99.90;;;;;;5075788;28;20425;-67
2022/03/17 01:52:29;;;;;;;35.47;23.88;;;10.00;99.90;;;;;;5093592;28;20048;-69
2022/03/17 01:54:56;;;;;;;31.70;23.65;;;10.00;99.90;;;;;;5093473;28;20082;-68
2022/03/17 01:57:22;;;;;;;35.80;25.13;;;;;;;;;;5093643;28;20449;-68
2022/03/17 01:59:49;;;;;;;33.15;24.60;;;10.30;99.90;;;;;;5075278;28;20047;-68
2022/03/17 02:02:15;;;;;;;36.65;24.92;;;10.20;99.90;;;;;;5068698;28;20104;-68
2022/03/17 02:04:42;;;;;;;34.17;23.65;;;10.30;99.90;;;;;;5073884;28;20040;-67
2022/03/17 02:07:08;;;;;;;33.53;24.20;;;10.60;99.90;;;;;;5079186;28;20036;-67
2022/03/17 02:09:35;;;;;;;36.28;25.17;;;10.30;99.90;;;;;;5070079;28;20388;-68
2022/03/17 02:14:58;;;;;;;38.45;25.60;;;10.30;99.90;;;;;;5093174;28;20564;-68
2022/03/17 02:17:25;;;;;;;35.75;25.77;;;10.00;99.90;;;;;;5093317;28;20040;-68
2022/03/17 02:19:51;;;;;;;36.35;25.52;;;10.10;99.90;;;;;;5093177;28;20387;-67
2022/03/17 02:22:19;;;;;;;35.33;25.67;;;9.70;99.90;;;;;;5093346;28;20036;-67
2022/03/17 02:27:35;;;;;;;35.42;25.98;;;9.70;99.90;;;;;;5093223;28;20115;-68
2022/03/17 02:30:03;;;;;;;33.97;25.08;;;10.30;99.90;;;;;;5093069;28;20479;-68
2022/03/17 02:32:29;;;;;;;35.55;25.40;;;;;;;;;;5092939;28;20052;-68
2022/03/17 02:34:55;;;;;;;37.20;25.55;;;;;;;;;;5074945;28;20048;-67
2022/03/17 02:37:24;;;;;;;37.38;25.95;;;9.80;99.90;;;;;;5092988;28;20040;-68
2022/03/17 02:39:49;;;;;;;35.95;25.73;;;9.60;99.90;;;;;;5075186;28;20479;-68
2022/03/17 02:42:15;;;;;;;33.28;24.50;;;9.60;99.90;;;;;;5074860;28;20040;-67
2022/03/17 02:44:41;;;;;;;35.45;25.10;;;10.30;99.90;;;;;;5095619;28;20036;-67
2022/03/17 02:47:07;;;;;;;33.53;25.23;;;9.80;99.90;;;;;;5096949;28;20042;-67
2022/03/17 02:49:33;;;;;;;35.50;25.13;;;9.70;99.90;;;;;;5097156;28;20071;-67
2022/03/17 02:51:59;;;;;;;37.65;24.60;;;10.00;99.90;;;;;;5097263;28;20040;-67
2022/03/17 02:54:24;;;;;;;33.70;25.15;;;10.00;99.90;;;;;;5096863;28;20047;-67
2022/03/17 02:56:50;;;;;;;35.00;25.63;;;10.20;99.90;;;;;;5096790;28;20036;-67
2022/03/17 02:59:16;;;;;;;35.50;26.00;;;;;;;;;;5096865;28;20089;-67
2022/03/17 03:01:42;;;;;;;36.10;25.65;;;9.80;99.90;;;;;;5078521;28;20043;-68
2022/03/17 03:04:08;;;;;;;38.58;26.15;;;9.90;99.90;;;;;;5096895;28;20044;-68
2022/03/17 03:06:33;;;;;;;38.40;25.33;;;10.60;99.90;;;;;;5096575;28;20441;-67
2022/03/17 03:08:59;;;;;;;35.65;26.15;;;10.00;99.90;;;;;;5096558;28;20044;-67
2022/03/17 03:11:25;;;;;;;36.05;25.75;;;9.80;99.90;;;;;;5096609;28;20051;-68
2022/03/17 03:13:51;;;;;;;38.70;27.08;;;9.70;99.90;;;;;;5078564;28;20044;-67
2022/03/17 03:16:17;;;;;;;36.83;26.15;;;9.90;99.90;;;;;;5096276;28;20139;-67
2022/03/17 03:18:42;;;;;;;37.08;25.65;;;10.20;99.90;;;;;;5078275;28;20040;-67
2022/03/17 03:21:08;;;;;;;34.47;26.63;;;9.90;99.90;;;;;;5096407;28;20496;-68
2022/03/17 03:23:34;;;;;;;36.97;27.27;;;9.70;99.90;;;;;;5096261;28;20044;-67
2022/03/17 03:26:00;;;;;;;35.67;26.35;;;9.70;99.90;;;;;;5096020;28;20048;-68
2022/03/17 03:28:26;;;;;;;33.95;25.25;;;9.60;99.90;;;;;;5096197;28;20032;-68
2022/03/17 03:30:54;;;;;;;39.17;26.02;;;9.50;99.90;;;;;;5096105;28;20035;-68
2022/03/17 03:33:20;;;;;;;34.75;25.83;;;10.20;99.90;;;;;;5061847;28;20047;-68
2022/03/17 03:38:30;;;;;;;38.35;26.38;;;9.60;99.90;;;;;;5096069;28;20137;-68
2022/03/17 03:40:56;;;;;;;37.15;26.70;;;10.00;99.90;;;;;;5095970;28;20036;-68
2022/03/17 03:43:22;;;;;;;34.00;25.90;;;9.60;99.90;;;;;;5095728;28;20036;-68
2022/03/17 03:45:50;;;;;;;38.45;26.98;;;9.90;99.90;;;;;;5095883;28;20043;-68
2022/03/17 03:48:16;;;;;;;36.10;26.92;;;9.90;99.90;;;;;;5096081;28;20089;-68
2022/03/17 03:50:41;;;;;;;38.85;26.05;;;9.50;99.90;;;;;;5077943;28;20119;-67
2022/03/17 03:53:07;;;;;;;37.47;26.13;;;10.30;99.90;;;;;;5095806;28;20028;-68
2022/03/17 03:55:33;;;;;;;37.58;25.83;;;10.20;99.90;;;;;;5095220;28;20040;-68
2022/03/17 03:58:00;;;;;;;35.30;26.67;;;9.70;99.90;;;;;;5095885;28;20090;-67
2022/03/17 04:00:32;;;;;;;41.50;27.65;;;9.50;99.90;;;;;;5095952;28;20352;-68
2022/03/17 04:02:58;;;;;;;34.67;26.50;;;10.00;99.90;;;;;;5095941;28;20032;-67
2022/03/17 04:05:33;;;;;;;38.70;26.83;;;9.70;99.90;;;;;;5077392;28;20130;-68
2022/03/17 04:07:59;;;;;;;36.05;26.42;;;9.90;99.90;;;;;;5077504;28;20089;-68
2022/03/17 04:10:26;;;;;;;40.65;26.30;;;10.00;99.90;;;;;;5095347;28;20044;-67
2022/03/17 04:12:53;;;;;;;35.38;27.05;;;9.70;99.90;;;;;;5095549;28;20053;-67
2022/03/17 04:15:18;;;;;;;40.67;27.48;;;10.00;99.90;;;;;;5095495;28;20048;-68
2022/03/17 04:17:44;;;;;;;34.42;27.10;;;10.50;99.90;;;;;;5095407;28;20070;-68
2022/03/17 04:20:10;;;;;;;34.58;26.15;;;9.80;99.90;;;;;;5095180;28;20040;-67
2022/03/17 04:22:37;;;;;;;37.70;26.90;;;9.70;99.90;;;;;;5077236;28;20032;-67
2022/03/17 04:25:03;;;;;;;33.05;26.30;;;10.30;99.90;;;;;;5095026;28;20051;-67
2022/03/17 04:27:29;;;;;;;41.25;27.30;;;10.30;99.90;;;;;;5095344;28;20087;-68
2022/03/17 04:29:55;;;;;;;36.92;27.02;;;9.70;99.90;;;;;;5095214;28;20032;-68
2022/03/17 04:32:21;;;;;;;35.75;27.20;;;10.20;99.90;;;;;;5095073;28;20146;-68
2022/03/17 04:34:47;;;;;;;37.35;27.13;;;10.00;99.90;;;;;;5095027;28;20032;-68
2022/03/17 04:37:13;;;;;;;35.42;26.85;;;9.70;99.90;;;;;;5094803;28;20036;-68
2022/03/17 04:39:39;;;;;;;34.50;27.42;;;9.60;99.90;;;;;;5094715;28;20051;-68
2022/03/17 04:42:05;;;;;;;37.47;27.10;;;9.70;99.90;;;;;;5094624;28;20040;-68
2022/03/17 04:44:31;;;;;;;36.95;28.25;;;10.10;99.90;;;;;;5094928;28;20069;-68
2022/03/17 04:46:57;;;;;;;38.58;29.30;;;9.60;99.90;;;;;;5094795;28;20058;-69
2022/03/17 04:49:23;;;;;;;41.55;28.98;;;10.10;99.90;;;;;;5094675;28;20040;-68
2022/03/17 04:51:49;;;;;;;37.05;28.45;;;10.60;99.90;;;;;;5076441;28;20078;-68
2022/03/17 04:54:16;;;;;;;44.35;31.80;;;;;;;;;;5095016;28;20089;-68
2022/03/17 04:56:42;;;;;;;53.70;35.03;;;10.00;99.90;;;;;;5094722;28;20036;-67
2022/03/17 04:59:08;;;;;;;47.22;36.15;;;9.80;99.90;;;;;;5094541;28;20119;-67
2022/03/17 05:01:33;;;;;;;52.10;37.38;;;10.20;99.90;;;;;;5094388;28;20066;-66
2022/03/17 05:04:01;;;;;;;55.05;37.33;;;10.40;99.90;;;;;;5094416;28;20494;-67
2022/03/17 05:06:27;;;;;;;59.75;40.35;;;10.10;99.90;;;;;;5093470;28;20055;-68
2022/03/17 05:08:53;;;;;;;61.72;42.05;;;;;;;;;;5094361;28;20032;-68
2022/03/17 05:11:19;;;;;;;67.40;43.78;;;10.20;99.90;;;;;;5076397;28;20404;-69
2022/03/17 05:13:46;;;;;;;67.07;43.65;;;10.20;99.90;;;;;;5094306;28;20047;-69
2022/03/17 05:16:13;;;;;;;77.43;46.78;;;10.40;99.90;;;;;;5094477;28;20044;-68
2022/03/17 05:18:39;;;;;;;76.25;47.80;;;9.80;99.90;;;;;;5094494;28;20048;-68
2022/03/17 05:21:05;;;;;;;82.57;49.15;;;10.10;99.90;;;;;;5075990;28;20045;-68
2022/03/17 05:23:32;;;;;;;87.20;50.35;;;9.90;99.90;;;;;;5076082;28;20043;-68
2022/03/17 05:25:58;;;;;;;82.78;50.00;;;10.10;99.90;;;;;;5059129;28;20135;-69
2022/03/17 05:28:24;;;;;;;95.75;52.95;;;10.10;99.90;;;;;;5094228;28;20485;-69
2022/03/17 05:30:49;;;;;;;91.05;52.72;;;10.00;99.90;;;;;;5093911;28;20044;-69
2022/03/17 05:33:15;;;;;;;99.85;55.03;;;9.80;99.90;;;;;;5094261;28;20082;-69
2022/03/17 05:35:42;;;;;;;95.32;53.30;;;10.30;99.90;;;;;;5093641;28;20475;-69
2022/03/17 05:38:09;;;;;;;84.03;46.90;;;9.80;99.90;;;;;;5094109;28;20119;-69
2022/03/17 05:40:36;;;;;;;58.20;34.40;;;;;;;;;;5075004;28;20588;-69
2022/03/17 05:43:06;;;;;;;41.15;25.60;;;10.20;99.90;;;;;;5075467;28;20075;-69
2022/03/17 05:45:32;;;;;;;29.83;18.45;;;9.60;99.90;;;;;;5093557;28;20547;-69
2022/03/17 05:48:00;;;;;;;25.45;16.42;;;10.10;99.90;;;;;;5093756;28;20391;-69
2022/03/17 05:50:32;;;;;;;16.98;12.57;;;9.20;99.90;;;;;;5093589;28;20036;-70
2022/03/17 05:52:58;;;;;;;14.73;10.68;;;9.20;99.90;;;;;;5093533;28;20118;-69
2022/03/17 05:55:25;;;;;;;15.63;11.82;;;9.10;99.90;;;;;;5093749;28;20120;-69
2022/03/17 05:57:54;;;;;;;15.45;12.13;;;9.20;99.90;;;;;;5075318;28;20048;-69
2022/03/17 06:00:25;;;;;;;14.15;11.35;;;9.40;99.90;;;;;;5075409;28;20048;-69
2022/03/17 06:02:51;;;;;;;14.65;11.50;;;8.80;99.90;;;;;;5093217;28;20096;-69
2022/03/17 06:05:17;;;;;;;14.25;11.35;;;8.70;99.90;;;;;;5093572;28;20075;-69
2022/03/17 06:07:48;;;;;;;14.23;11.73;;;8.70;99.90;;;;;;5075240;28;20447;-69
2022/03/17 06:10:21;;;;;;;15.10;11.50;;;8.80;99.90;;;;;;5093340;28;20036;-69
2022/03/17 06:12:50;;;;;;;17.08;11.70;;;8.90;99.90;;;;;;5093296;28;20070;-70
2022/03/17 06:15:16;;;;;;;14.05;11.95;;;9.20;99.90;;;;;;5093164;28;20093;-69
2022/03/17 06:18:03;;;;;;;15.77;12.18;;;8.50;99.90;;;;;;5092864;28;20039;-70
2022/03/17 06:20:31;;;;;;;16.85;12.18;;;8.50;99.90;;;;;;5090059;28;20043;-70
2022/03/17 06:22:58;;;;;;;15.65;12.50;;;8.30;99.90;;;;;;5093137;28;20080;-68
2022/03/17 06:25:26;;;;;;;17.38;12.20;;;8.40;99.90;;;;;;5092818;28;20060;-69
2022/03/17 06:27:52;;;;;;;18.10;12.45;;;8.20;99.90;;;;;;5092976;28;20083;-69
2022/03/17 06:30:21;;;;;;;18.65;13.00;;;8.50;99.90;;;;;;5093159;28;20444;-69
2022/03/17 06:32:48;;;;;;;21.92;13.48;;;8.50;99.90;;;;;;5093182;28;20063;-69
2022/03/17 06:35:17;;;;;;;17.58;12.32;;;8.70;99.90;;;;;;5093017;28;20055;-69
2022/03/17 06:37:54;;;;;;;18.52;12.05;;;8.30;99.90;;;;;;5093214;28;20367;-69
2022/03/17 06:40:21;;;;;;;21.35;12.68;;;8.30;99.90;;;;;;5092709;28;20083;-69
2022/03/17 06:42:49;;;;;;;22.92;13.32;;;8.10;99.90;;;;;;5092776;28;20048;-69
2022/03/17 06:45:15;;;;;;;22.70;13.10;;;6.90;99.90;;;;;;5093030;28;20032;-69
2022/03/17 06:47:42;;;;;;;21.17;12.38;;;8.10;99.90;;;;;;5092712;28;20531;-68
2022/03/17 06:50:10;;;;;;;26.00;13.02;;;9.00;99.90;;;;;;5093082;28;20102;-68
2022/03/17 06:52:36;;;;;;;21.83;11.77;;;7.90;99.90;;;;;;5075159;28;20040;-69
2022/03/17 06:55:02;;;;;;;19.90;11.63;;;7.60;99.90;;;;;;5092628;28;20040;-69
2022/03/17 06:57:28;;;;;;;20.10;10.77;;;8.00;99.90;;;;;;5092733;28;20079;-69
2022/03/17 06:59:54;;;;;;;18.95;10.38;;;;;;;;;;5092979;28;20140;-69
2022/03/17 07:02:20;;;;;;;23.67;10.82;;;7.80;99.90;;;;;;5092700;28;20040;-69
2022/03/17 07:04:46;;;;;;;21.70;10.35;;;8.00;99.90;;;;;;5092792;28;20036;-69
2022/03/17 07:07:13;;;;;;;20.40;10.25;;;8.00;99.90;;;;;;5092642;28;20040;-69
2022/03/17 07:09:41;;;;;;;21.60;9.95;;;8.20;99.90;;;;;;5092536;28;20493;-69
2022/03/17 07:12:07;;;;;;;19.60;9.70;;;8.20;99.90;;;;;;5092578;28;20048;-69
2022/03/17 07:14:33;;;;;;;19.45;9.90;;;7.90;99.90;;;;;;5074926;28;20437;-69
2022/03/17 07:16:59;;;;;;;21.55;9.30;;;;;;;;;;5092590;28;20051;-69
2022/03/17 07:19:25;;;;;;;27.15;9.90;;;;;;;;;;5092877;28;20044;-69
2022/03/17 07:21:54;;;;;;;20.05;8.70;;;8.10;99.90;;;;;;5092428;28;20048;-69
2022/03/17 07:24:20;;;;;;;23.70;8.10;;;8.20;99.90;;;;;;5074474;28;20056;-69
2022/03/17 07:26:46;;;;;;;17.67;7.00;;;8.10;99.90;;;;;;5092866;28;20123;-69
2022/03/17 07:29:12;;;;;;;14.45;6.60;;;7.80;99.90;;;;;;5075013;28;20418;-69
2022/03/17 07:31:37;;;;;;;17.83;6.07;;;8.10;99.90;;;;;;5093569;28;20115;-69
2022/03/17 07:34:04;;;;;;;15.10;5.32;;;8.00;99.90;;;;;;5076713;28;20387;-69
2022/03/17 07:36:30;;;;;;;13.98;5.10;;;8.00;99.90;;;;;;5060750;28;20040;-69
2022/03/17 07:38:56;;;;;;;15.55;5.40;;;8.10;99.90;;;;;;5076552;28;20078;-68
2022/03/17 07:41:23;;;;;;;13.45;5.10;;;7.90;99.90;;;;;;5087352;28;20033;-69
2022/03/17 07:43:49;;;;;;;12.65;4.43;;;8.10;99.90;;;;;;5086988;28;20040;-68
2022/03/17 07:46:15;;;;;;;15.07;4.40;;;8.90;99.90;;;;;;5085137;28;20032;-69
2022/03/17 07:48:41;;;;;;;16.40;4.47;;;;;;;;;;5063388;28;20464;-68
2022/03/17 07:51:08;;;;;;;14.80;4.32;;;8.30;99.90;;;;;;5084540;28;20073;-69
2022/03/17 07:53:34;;;;;;;14.52;4.30;;;8.90;99.90;;;;;;5076489;28;20052;-68
2022/03/17 07:56:02;;;;;;;13.60;4.50;;;8.30;99.90;;;;;;5089481;28;20111;-69
2022/03/17 07:58:28;;;;;;;15.48;4.25;;;;;;;;;;5092902;28;20111;-69
2022/03/17 08:00:56;;;;;;;17.75;4.07;;;7.80;99.90;;;;;;5092935;28;20078;-68
2022/03/17 08:03:22;;;;;;;16.38;4.75;;;8.10;99.90;;;;;;5091069;28;20111;-69
2022/03/17 08:05:49;;;;;;;18.45;4.05;;;8.50;99.90;;;;;;5093481;28;20067;-69
2022/03/17 08:08:15;;;;;;;14.20;3.80;;;8.20;99.90;;;;;;5092444;28;20086;-70
2022/03/17 08:10:41;;;;;;;19.25;3.90;;;7.70;99.90;;;;;;5093768;28;20475;-68
2022/03/17 08:13:09;;;;;;;19.08;4.55;;;8.10;99.90;;;;;;5094507;28;20036;-69
2022/03/17 08:15:36;;;;;;;16.40;3.92;;;6.60;99.90;;;;;;5093843;28;20491;-68
2022/03/17 08:18:02;;;;;;;17.35;3.30;;;;;;;;;;5076389;28;20044;-68
2022/03/17 08:20:28;;;;;;;12.73;3.20;;;8.10;99.90;;;;;;5094308;28;20036;-69
2022/03/17 08:22:55;;;;;;;16.55;2.92;;;8.40;99.90;;;;;;5093119;28;20046;-69
2022/03/17 08:25:20;;;;;;;16.05;3.10;;;8.30;99.90;;;;;;5093205;28;20051;-68
2022/03/17 08:27:46;;;;;;;14.20;2.90;;;8.10;99.90;;;;;;5075813;28;20563;-69
2022/03/17 08:30:12;;;;;;;14.48;2.70;;;7.90;99.90;;;;;;5076031;28;20040;-68
2022/03/17 08:32:40;;;;;;;14.68;2.90;;;8.00;99.90;;;;;;5092618;28;20043;-68
2022/03/17 08:35:07;;;;;;;11.80;2.55;;;;;;;;;;5092583;28;20091;-69
2022/03/17 08:37:39;;;;;;;17.90;3.03;;;8.10;99.90;;;;;;5093092;28;20421;-68
2022/03/17 08:40:05;;;;;;;16.65;3.08;;;8.10;99.90;;;;;;5092222;28;20079;-69
2022/03/17 08:42:31;;;;;;;13.75;2.60;;;8.10;99.90;;;;;;5074535;28;20047;-68
2022/03/17 08:44:56;;;;;;;13.52;2.90;;;7.90;99.90;;;;;;5092324;28;20032;-69
2022/03/17 08:50:07;;;;;;;18.48;2.85;;;8.20;99.90;;;;;;5092680;28;20051;-69
2022/03/17 08:52:33;;;;;;;19.02;4.28;;;;;;;;;;5073648;28;20552;-68
2022/03/17 08:54:59;;;;;;;18.98;2.97;;;8.20;99.90;;;;;;5077284;28;20091;-68
2022/03/17 08:57:25;;;;;;;22.98;3.67;;;7.70;99.90;;;;;;5075979;28;20048;-68
2022/03/17 08:59:53;;;;;;;18.10;3.22;;;8.10;99.90;;;;;;5090574;28;20048;-69
2022/03/17 09:02:19;;;;;;;18.50;3.38;;;;;;;;;;5091642;28;20040;-68
2022/03/17 09:04:45;;;;;;;25.25;3.50;;;8.10;99.90;;;;;;5071246;28;20071;-68
2022/03/17 09:07:11;;;;;;;21.88;3.50;;;7.80;99.90;;;;;;5092624;28;20064;-68
2022/03/17 09:09:38;;;;;;;18.70;3.22;;;7.80;99.90;;;;;;5092168;28;20074;-67
2022/03/17 09:12:06;;;;;;;26.77;3.40;;;8.20;99.90;;;;;;5091435;28;20067;-68
2022/03/17 09:14:40;;;;;;;22.17;3.00;;;8.30;99.90;;;;;;5068905;28;20079;-67
2022/03/17 09:17:06;;;;;;;16.45;3.15;;;;;;;;;;5092089;28;20036;-68
2022/03/17 09:19:32;;;;;;;17.75;3.00;;;8.30;99.90;;;;;;5089380;28;20119;-67
2022/03/17 09:22:00;;;;;;;19.02;3.00;;;7.90;99.90;;;;;;5073801;28;20764;-68
2022/03/17 09:24:30;;;;;;;22.10;3.00;;;8.10;99.90;;;;;;5091636;28;20059;-68
2022/03/17 09:26:55;;;;;;;16.98;2.97;;;8.10;99.90;;;;;;5073102;28;20609;-69
2022/03/17 09:29:21;;;;;;;17.98;2.90;;;8.00;99.90;;;;;;5092117;28;20127;-68
2022/03/17 09:31:49;;;;;;;20.85;3.20;;;;;;;;;;5091678;28;20414;-68
2022/03/17 09:34:14;;;;;;;17.10;2.85;;;7.90;99.90;;;;;;5091997;28;20051;-68
2022/03/17 09:36:40;;;;;;;16.73;3.50;;;8.20;99.90;;;;;;5053045;28;20430;-68
2022/03/17 09:41:52;;;;;;;17.33;3.42;;;8.70;99.90;;;;;;5079523;28;20073;-59
2022/03/17 09:44:18;;;;;;;18.88;3.60;;;8.50;99.90;;;;;;5092760;28;20067;-59
2022/03/17 09:46:45;;;;;;;22.02;3.10;;;8.40;99.90;;;;;;5092096;28;20078;-60
2022/03/17 09:49:11;;;;;;;21.35;3.80;;;8.70;99.90;;;;;;5091558;28;20043;-59
2022/03/17 09:51:37;;;;;;;21.17;3.90;;;8.40;99.90;;;;;;5087011;28;21183;-60
2022/03/17 09:54:03;;;;;;;18.63;3.45;;;8.70;99.90;;;;;;5083598;28;20040;-59
2022/03/17 09:56:29;;;;;;;18.48;3.50;;;;;;;;;;5072185;28;20047;-67
2022/03/17 09:58:58;;;;;;;20.65;3.80;;;9.30;99.90;;;;;;5090430;28;20395;-65
2022/03/17 10:01:28;;;;;;;21.85;3.97;;;8.80;99.90;;;;;;5072655;28;20032;-62
2022/03/17 10:04:02;;;;;;;15.18;3.33;;;8.80;99.90;;;;;;5090691;28;20081;-62
2022/03/17 10:06:29;;;;;;;18.55;3.17;;;8.80;99.90;;;;;;5091231;28;20035;-63
2022/03/17 10:08:55;;;;;;;15.35;2.90;;;8.80;99.90;;;;;;5091674;28;20038;-61
2022/03/17 10:11:31;;;;;;;18.23;3.00;;;9.20;99.90;;;;;;5091056;28;20079;-62
2022/03/17 10:13:59;;;;;;;20.70;3.60;;;8.90;99.90;;;;;;5081543;28;20469;-64
2022/03/17 10:16:27;;;;;;;14.07;3.40;;;9.00;99.90;;;;;;5088184;28;20406;-64
2022/03/17 10:18:57;;;;;;;12.10;2.92;;;8.80;99.90;;;;;;5071782;28;20093;-59
2022/03/17 10:21:26;;;;;;;14.60;2.83;;;9.10;99.90;;;;;;5084942;28;20086;-60
2022/03/17 10:24:07;;;;;;;14.65;3.00;;;9.20;99.90;;;;;;5086583;28;20040;-59
2022/03/17 10:26:36;;;;;;;17.77;3.25;;;9.00;99.90;;;;;;5089084;28;20128;-59
2022/03/17 10:29:07;;;;;;;14.35;2.92;;;9.10;99.90;;;;;;5090486;28;20039;-59
2022/03/17 10:31:52;;;;;;;13.38;2.67;;;9.20;99.90;;;;;;5072229;28;20073;-60
2022/03/17 10:34:19;;;;;;;16.67;3.05;;;9.20;99.90;;;;;;5091068;28;20036;-59
2022/03/17 10:36:45;;;;;;;15.10;3.03;;;;;;;;;;5090264;28;20032;-60
2022/03/17 10:39:12;;;;;;;16.35;2.92;;;9.30;99.90;;;;;;5090816;28;20043;-59
2022/03/17 10:41:42;;;;;;;14.48;2.90;;;9.50;99.90;;;;;;5072187;28;20154;-59
2022/03/17 10:44:13;;;;;;;12.38;3.20;;;10.10;99.90;;;;;;5090424;28;20028;-59
2022/03/17 10:46:53;;;;;;;15.52;3.10;;;9.50;99.90;;;;;;5087952;28;20047;-60
2022/03/17 10:49:18;;;;;;;18.98;3.10;;;9.60;99.90;;;;;;5070114;28;20468;-60
2022/03/17 10:51:44;;;;;;;19.40;3.00;;;9.80;99.90;;;;;;5090643;28;20124;-59
2022/03/17 10:54:15;;;;;;;17.52;3.05;;;10.60;99.90;;;;;;5090854;28;20463;-59
2022/03/17 10:56:41;;;;;;;15.73;3.40;;;10.10;99.90;;;;;;5072256;28;20032;-60
2022/03/17 10:59:08;;;;;;;21.73;3.70;;;10.60;99.90;;;;;;5089375;28;20044;-59
2022/03/17 11:01:36;;;;;;;17.30;3.78;;;10.40;99.90;;;;;;5090749;28;20032;-60
2022/03/17 11:04:03;;;;;;;14.80;3.13;;;10.60;99.90;;;;;;5090720;28;20051;-59
2022/03/17 11:06:30;;;;;;;15.82;3.22;;;10.20;99.90;;;;;;5092585;28;20056;-60
2022/03/17 11:08:56;;;;;;;12.55;2.90;;;;;;;;;;5076406;28;20036;-60
2022/03/17 11:11:24;;;;;;;13.82;3.33;;;;;;;;;;5094610;28;20028;-60
2022/03/17 11:13:50;;;;;;;15.73;3.10;;;11.90;99.90;;;;;;5094746;28;20127;-60
2022/03/17 11:16:17;;;;;;;12.95;2.53;;;11.50;99.90;;;;;;5076362;28;20044;-61
2022/03/17 11:18:44;;;;;;;11.57;2.47;;;11.70;99.90;;;;;;5075839;28;20044;-61
2022/03/17 11:21:16;;;;;;;12.63;2.60;;;12.50;99.90;;;;;;5094205;28;20313;-60
2022/03/17 11:23:57;;;;;;;11.30;2.67;;;12.20;99.90;;;;;;5072699;28;20509;-60
2022/03/17 11:26:37;;;;;;;10.32;2.75;;;12.40;99.90;;;;;;5093782;28;20097;-60
2022/03/17 11:29:15;;;;;;;11.02;2.60;;;12.40;99.90;;;;;;5074121;28;20067;-60
2022/03/17 11:31:51;;;;;;;13.48;2.38;;;12.70;99.90;;;;;;5093910;28;20071;-60
2022/03/17 11:34:37;;;;;;;10.95;2.50;;;12.70;99.90;;;;;;5094354;28;20043;-60
2022/03/17 11:37:24;;;;;;;14.15;2.75;;;12.40;99.90;;;;;;5093506;28;20085;-60
2022/03/17 11:39:57;;;;;;;14.00;2.40;;;12.70;99.90;;;;;;5075879;28;20089;-61
2022/03/17 11:42:37;;;;;;;11.98;2.45;;;12.50;99.90;;;;;;5093693;28;20040;-60
2022/03/17 11:45:10;;;;;;;15.48;2.80;;;12.10;99.90;;;;;;5076017;28;20039;-61
2022/03/17 11:47:37;;;;;;;12.52;2.90;;;12.10;99.90;;;;;;5094019;28;20032;-60
2022/03/17 11:50:22;;;;;;;12.10;2.60;;;12.40;99.90;;;;;;5094169;28;20036;-60
2022/03/17 11:52:58;;;;;;;13.85;2.70;;;12.50;99.90;;;;;;5093295;28;20048;-61
2022/03/17 11:55:42;;;;;;;12.93;2.90;;;12.70;99.90;;;;;;5093900;28;20048;-60
2022/03/17 11:58:24;;;;;;;10.50;2.70;;;12.60;99.90;;;;;;5093850;28;20036;-60
2022/03/17 12:01:06;;;;;;;13.15;2.47;;;12.80;99.90;;;;;;5093593;28;20032;-60
2022/03/17 12:03:39;;;;;;;11.52;2.60;;;13.00;99.90;;;;;;5093041;28;20433;-60
2022/03/17 12:06:12;;;;;;;12.57;2.80;;;13.10;99.90;;;;;;5093769;28;20035;-61
2022/03/17 12:08:41;;;;;;;12.65;2.60;;;12.80;96.80;;;;;;5093377;28;20075;-60
2022/03/17 12:11:07;;;;;;;10.45;2.45;;;;;;;;;;5090562;28;20074;-61
2022/03/17 12:13:36;;;;;;;12.43;2.58;;;13.10;99.90;;;;;;5075118;28;20071;-61
2022/03/17 12:16:02;;;;;;;9.88;2.40;;;12.90;99.90;;;;;;5074925;28;20043;-60
2022/03/17 12:18:28;;;;;;;11.00;2.63;;;12.80;99.90;;;;;;5093810;28;20082;-60
2022/03/17 12:20:56;;;;;;;13.85;2.60;;;12.90;99.90;;;;;;5093424;28;20068;-60
2022/03/17 12:23:49;;;;;;;12.55;2.88;;;12.80;97.50;;;;;;5089036;28;20048;-61
2022/03/17 12:26:20;;;;;;;12.55;2.80;;;13.10;99.90;;;;;;5091386;28;20089;-60
2022/03/17 12:28:46;;;;;;;8.95;2.28;;;12.80;99.90;;;;;;5093283;28;20502;-61
2022/03/17 12:31:12;;;;;;;9.25;2.20;;;12.70;99.90;;;;;;5072787;28;20039;-61
2022/03/17 12:33:38;;;;;;;13.68;2.97;;;12.50;99.50;;;;;;5092921;28;20093;-61
2022/03/17 12:36:06;;;;;;;12.75;2.80;;;12.60;99.90;;;;;;5093290;28;20036;-60
2022/03/17 12:38:34;;;;;;;11.55;2.90;;;12.70;97.40;;;;;;5093108;28;20036;-61
2022/03/17 12:41:00;;;;;;;13.32;2.90;;;13.00;99.90;;;;;;5090655;28;20391;-61
2022/03/17 12:43:26;;;;;;;13.43;2.78;;;13.10;95.80;;;;;;5093109;28;20082;-61
2022/03/17 12:45:53;;;;;;;9.68;2.78;;;13.10;99.90;;;;;;5057880;28;20032;-61
2022/03/17 12:48:21;;;;;;;10.95;2.30;;;13.20;98.40;;;;;;5093223;28;20036;-61
2022/03/17 12:50:47;;;;;;;9.07;2.50;;;13.10;97.60;;;;;;5092408;28;20035;-61
2022/03/17 12:53:14;;;;;;;9.05;2.20;;;13.40;97.50;;;;;;5092150;28;20105;-60
2022/03/17 12:55:40;;;;;;;11.82;2.45;;;;;;;;;;5074428;28;20126;-60
2022/03/17 12:58:06;;;;;;;11.90;2.50;;;;;;;;;;5092789;28;20032;-61
2022/03/17 13:00:32;;;;;;;12.93;2.40;;;13.50;86.10;;;;;;5092908;28;20072;-60